sensor_id;sensor_type;location;lat;lon;timestamp;temperature;humidity
17797;DHT22;55596;53.554;9.916;2022-08-06T00:00:23;11.90;99.90
17797;DHT22;55596;53.554;9.916;2022-08-06T00:02:50;11.80;99.90
17797;DHT22;55596;53.554;9.916;2022-08-06T00:05:17;11.80;99.90
17797;DHT22;55596;53.554;9.916;2022-08-06T00:07:45;11.90;99.90
17797;DHT22;55596;53.554;9.916;2022-08-06T00:10:12;11.60;99.90
17797;DHT22;55596;53.554;9.916;2022-08-06T00:12:39;11.70;99.90
17797;DHT22;55596;53.554;9.916;2022-08-06T00:15:07;11.60;99.90
17797;DHT22;55596;53.554;9.916;2022-08-06T00:17:34;11.60;99.90
17797;DHT22;55596;53.554;9.916;2022-08-06T00:20:04;11.60;99.90
17797;DHT22;55596;53.554;9.916;2022-08-06T00:22:31;11.40;99.90
17797;DHT22;55596;53.554;9.916;2022-08-06T00:24:59;11.40;99.90
17797;DHT22;55596;53.554;9.916;2022-08-06T00:27:26;11.40;99.90
17797;DHT22;55596;53.554;9.916;2022-08-06T00:29:53;11.30;99.90
17797;DHT22;55596;53.554;9.916;2022-08-06T00:32:19;11.40;99.90
17797;DHT22;55596;53.554;9.916;2022-08-06T00:34:47;11.40;99.90
17797;DHT22;55596;53.554;9.916;2022-08-06T00:37:13;11.30;99.90
17797;DHT22;55596;53.554;9.916;2022-08-06T00:39:40;11.40;99.90
17797;DHT22;55596;53.554;9.916;2022-08-06T00:42:08;11.40;99.90
17797;DHT22;55596;53.554;9.916;2022-08-06T00:44:35;11.40;99.90
17797;DHT22;55596;53.554;9.916;2022-08-06T00:47:02;11.50;99.90
17797;DHT22;55596;53.554;9.916;2022-08-06T00:49:29;11.40;99.90
17797;DHT22;55596;53.554;9.916;2022-08-06T00:51:56;11.20;99.90
17797;DHT22;55596;53.554;9.916;2022-08-06T00:54:23;11.20;99.90
17797;DHT22;55596;53.554;9.916;2022-08-06T00:56:50;11.50;99.90
17797;DHT22;55596;53.554;9.916;2022-08-06T00:59:18;11.40;99.90
17797;DHT22;55596;53.554;9.916;2022-08-06T01:01:45;11.30;99.90
17797;DHT22;55596;53.554;9.916;2022-08-06T01:04:12;11.30;99.90
17797;DHT22;55596;53.554;9.916;2022-08-06T01:06:39;11.20;99.90
17797;DHT22;55596;53.554;9.916;2022-08-06T01:09:05;11.10;99.90
17797;DHT22;55596;53.554;9.916;2022-08-06T01:11:32;11.50;99.90
17797;DHT22;55596;53.554;9.916;2022-08-06T01:13:59;11.20;99.90
17797;DHT22;55596;53.554;9.916;2022-08-06T01:16:35;11.10;99.90
17797;DHT22;55596;53.554;9.916;2022-08-06T01:19:16;11.20;99.90
17797;DHT22;55596;53.554;9.916;2022-08-06T01:21:56;11.10;99.90
17797;DHT22;55596;53.554;9.916;2022-08-06T01:24:50;11.10;99.90
17797;DHT22;55596;53.554;9.916;2022-08-06T01:27:29;11.10;99.90
17797;DHT22;55596;53.554;9.916;2022-08-06T01:30:03;11.10;99.90
17797;DHT22;55596;53.554;9.916;2022-08-06T01:32:34;11.10;99.90
17797;DHT22;55596;53.554;9.916;2022-08-06T01:35:06;11.10;99.90
17797;DHT22;55596;53.554;9.916;2022-08-06T01:37:37;11.10;99.90
17797;DHT22;55596;53.554;9.916;2022-08-06T01:40:10;11.00;99.90
17797;DHT22;55596;53.554;9.916;2022-08-06T01:42:40;10.90;99.90
17797;DHT22;55596;53.554;9.916;2022-08-06T01:45:11;10.80;99.90
17797;DHT22;55596;53.554;9.916;2022-08-06T01:47:39;10.90;99.90
17797;DHT22;55596;53.554;9.916;2022-08-06T01:50:08;10.80;99.90
17797;DHT22;55596;53.554;9.916;2022-08-06T01:52:38;10.80;99.90
17797;DHT22;55596;53.554;9.916;2022-08-06T01:55:09;10.70;99.90
17797;DHT22;55596;53.554;9.916;2022-08-06T01:57:36;10.80;99.90
17797;DHT22;55596;53.554;9.916;2022-08-06T02:00:07;10.90;99.90
17797;DHT22;55596;53.554;9.916;2022-08-06T02:02:34;10.80;99.90
17797;DHT22;55596;53.554;9.916;2022-08-06T02:05:04;10.90;99.90
17797;DHT22;55596;53.554;9.916;2022-08-06T02:07:35;10.90;99.90
17797;DHT22;55596;53.554;9.916;2022-08-06T02:10:05;10.70;99.90
17797;DHT22;55596;53.554;9.916;2022-08-06T02:12:34;10.70;99.90
17797;DHT22;55596;53.554;9.916;2022-08-06T02:15:06;10.80;99.90
17797;DHT22;55596;53.554;9.916;2022-08-06T02:17:40;10.80;99.90
17797;DHT22;55596;53.554;9.916;2022-08-06T02:20:09;10.70;99.90
17797;DHT22;55596;53.554;9.916;2022-08-06T02:22:38;10.90;99.90
17797;DHT22;55596;53.554;9.916;2022-08-06T02:25:07;10.80;99.90
17797;DHT22;55596;53.554;9.916;2022-08-06T02:27:38;10.90;99.90
17797;DHT22;55596;53.554;9.916;2022-08-06T02:30:11;10.70;99.90
17797;DHT22;55596;53.554;9.916;2022-08-06T02:32:38;10.70;99.90
17797;DHT22;55596;53.554;9.916;2022-08-06T02:35:05;10.70;99.90
17797;DHT22;55596;53.554;9.916;2022-08-06T02:37:38;10.60;99.90
17797;DHT22;55596;53.554;9.916;2022-08-06T02:40:09;10.60;99.90
17797;DHT22;55596;53.554;9.916;2022-08-06T02:42:41;10.50;99.90
17797;DHT22;55596;53.554;9.916;2022-08-06T02:45:15;10.70;99.90
17797;DHT22;55596;53.554;9.916;2022-08-06T02:47:48;10.50;99.90
17797;DHT22;55596;53.554;9.916;2022-08-06T02:50:17;10.40;99.90
17797;DHT22;55596;53.554;9.916;2022-08-06T02:52:46;10.50;99.90
17797;DHT22;55596;53.554;9.916;2022-08-06T02:55:17;10.30;99.90
17797;DHT22;55596;53.554;9.916;2022-08-06T02:57:48;10.30;99.90
17797;DHT22;55596;53.554;9.916;2022-08-06T03:00:18;10.30;99.90
17797;DHT22;55596;53.554;9.916;2022-08-06T03:02:47;10.30;99.90
17797;DHT22;55596;53.554;9.916;2022-08-06T03:05:18;10.30;99.90
17797;DHT22;55596;53.554;9.916;2022-08-06T03:07:47;10.30;99.90
17797;DHT22;55596;53.554;9.916;2022-08-06T03:10:18;10.20;99.90
17797;DHT22;55596;53.554;9.916;2022-08-06T03:12:46;10.10;99.90
17797;DHT22;55596;53.554;9.916;2022-08-06T03:15:14;10.00;99.90
17797;DHT22;55596;53.554;9.916;2022-08-06T03:17:44;11.90;99.90
17797;DHT22;55596;53.554;9.916;2022-08-06T03:20:16;10.20;99.90
17797;DHT22;55596;53.554;9.916;2022-08-06T03:22:47;10.10;99.90
17797;DHT22;55596;53.554;9.916;2022-08-06T03:25:16;10.20;99.90
17797;DHT22;55596;53.554;9.916;2022-08-06T03:27:44;10.10;99.90
17797;DHT22;55596;53.554;9.916;2022-08-06T03:30:12;10.20;99.90
17797;DHT22;55596;53.554;9.916;2022-08-06T03:32:39;10.10;99.90
17797;DHT22;55596;53.554;9.916;2022-08-06T03:35:09;10.00;99.90
17797;DHT22;55596;53.554;9.916;2022-08-06T03:37:36;10.10;99.90
17797;DHT22;55596;53.554;9.916;2022-08-06T03:40:05;10.20;99.90
17797;DHT22;55596;53.554;9.916;2022-08-06T03:42:32;10.20;99.90
17797;DHT22;55596;53.554;9.916;2022-08-06T03:45:00;10.20;99.90
17797;DHT22;55596;53.554;9.916;2022-08-06T03:47:31;10.20;99.90
17797;DHT22;55596;53.554;9.916;2022-08-06T03:50:04;10.30;99.90
17797;DHT22;55596;53.554;9.916;2022-08-06T03:52:36;10.20;99.90
17797;DHT22;55596;53.554;9.916;2022-08-06T03:55:06;10.20;99.90
17797;DHT22;55596;53.554;9.916;2022-08-06T03:57:38;10.20;99.90
17797;DHT22;55596;53.554;9.916;2022-08-06T04:00:07;10.20;99.90
17797;DHT22;55596;53.554;9.916;2022-08-06T04:02:38;10.20;99.90
17797;DHT22;55596;53.554;9.916;2022-08-06T04:05:07;10.20;99.90
17797;DHT22;55596;53.554;9.916;2022-08-06T04:07:35;10.30;99.90
17797;DHT22;55596;53.554;9.916;2022-08-06T04:10:03;10.20;99.90
17797;DHT22;55596;53.554;9.916;2022-08-06T04:12:31;10.20;99.90
17797;DHT22;55596;53.554;9.916;2022-08-06T04:15:00;10.10;99.90
17797;DHT22;55596;53.554;9.916;2022-08-06T04:17:27;10.20;99.90
17797;DHT22;55596;53.554;9.916;2022-08-06T04:19:55;10.20;99.90
17797;DHT22;55596;53.554;9.916;2022-08-06T04:22:22;10.10;99.90
17797;DHT22;55596;53.554;9.916;2022-08-06T04:24:50;10.20;99.90
17797;DHT22;55596;53.554;9.916;2022-08-06T04:27:20;10.20;99.90
17797;DHT22;55596;53.554;9.916;2022-08-06T04:29:48;10.30;99.90
17797;DHT22;55596;53.554;9.916;2022-08-06T04:32:17;10.30;99.90
17797;DHT22;55596;53.554;9.916;2022-08-06T04:34:47;10.40;99.90
17797;DHT22;55596;53.554;9.916;2022-08-06T04:37:14;10.40;99.90
17797;DHT22;55596;53.554;9.916;2022-08-06T04:39:42;10.50;99.90
17797;DHT22;55596;53.554;9.916;2022-08-06T04:42:10;10.60;99.90
17797;DHT22;55596;53.554;9.916;2022-08-06T04:44:37;10.70;99.90
17797;DHT22;55596;53.554;9.916;2022-08-06T04:47:05;10.80;99.90
17797;DHT22;55596;53.554;9.916;2022-08-06T04:49:33;10.80;99.90
17797;DHT22;55596;53.554;9.916;2022-08-06T04:52:00;11.00;99.90
17797;DHT22;55596;53.554;9.916;2022-08-06T04:54:26;10.80;99.90
17797;DHT22;55596;53.554;9.916;2022-08-06T04:56:53;11.00;99.90
17797;DHT22;55596;53.554;9.916;2022-08-06T04:59:21;12.00;99.90
17797;DHT22;55596;53.554;9.916;2022-08-06T05:01:48;11.10;99.90
17797;DHT22;55596;53.554;9.916;2022-08-06T05:04:15;11.20;99.90
17797;DHT22;55596;53.554;9.916;2022-08-06T05:06:44;11.30;99.90
17797;DHT22;55596;53.554;9.916;2022-08-06T05:09:17;11.40;99.90
17797;DHT22;55596;53.554;9.916;2022-08-06T05:11:48;11.40;99.90
17797;DHT22;55596;53.554;9.916;2022-08-06T05:14:24;11.40;99.90
17797;DHT22;55596;53.554;9.916;2022-08-06T05:16:54;11.40;99.90
17797;DHT22;55596;53.554;9.916;2022-08-06T05:19:26;11.50;99.90
17797;DHT22;55596;53.554;9.916;2022-08-06T05:21:55;11.40;99.90
17797;DHT22;55596;53.554;9.916;2022-08-06T05:24:24;11.50;99.90
17797;DHT22;55596;53.554;9.916;2022-08-06T05:26:52;11.60;99.90
17797;DHT22;55596;53.554;9.916;2022-08-06T05:29:19;11.90;99.90
17797;DHT22;55596;53.554;9.916;2022-08-06T05:31:48;12.10;99.90
17797;DHT22;55596;53.554;9.916;2022-08-06T05:34:15;12.40;99.90
17797;DHT22;55596;53.554;9.916;2022-08-06T05:36:43;13.20;99.90
17797;DHT22;55596;53.554;9.916;2022-08-06T05:39:10;12.70;99.90
17797;DHT22;55596;53.554;9.916;2022-08-06T05:41:37;13.00;99.90
17797;DHT22;55596;53.554;9.916;2022-08-06T05:44:04;12.90;99.90
17797;DHT22;55596;53.554;9.916;2022-08-06T05:46:34;12.80;99.90
17797;DHT22;55596;53.554;9.916;2022-08-06T05:49:06;13.00;99.90
17797;DHT22;55596;53.554;9.916;2022-08-06T05:51:38;13.10;99.90
17797;DHT22;55596;53.554;9.916;2022-08-06T05:54:12;13.20;99.90
17797;DHT22;55596;53.554;9.916;2022-08-06T05:56:43;13.40;99.90
17797;DHT22;55596;53.554;9.916;2022-08-06T05:59:16;13.30;99.90
17797;DHT22;55596;53.554;9.916;2022-08-06T06:01:45;13.60;99.90
17797;DHT22;55596;53.554;9.916;2022-08-06T06:04:15;13.80;99.90
17797;DHT22;55596;53.554;9.916;2022-08-06T06:06:43;13.70;99.90
17797;DHT22;55596;53.554;9.916;2022-08-06T06:09:10;13.80;99.90
17797;DHT22;55596;53.554;9.916;2022-08-06T06:11:40;13.80;99.90
17797;DHT22;55596;53.554;9.916;2022-08-06T06:14:24;13.80;99.90
17797;DHT22;55596;53.554;9.916;2022-08-06T06:16:59;13.70;99.90
17797;DHT22;55596;53.554;9.916;2022-08-06T06:19:37;13.60;99.90
17797;DHT22;55596;53.554;9.916;2022-08-06T06:22:10;13.60;99.90
17797;DHT22;55596;53.554;9.916;2022-08-06T06:24:43;13.50;99.90
17797;DHT22;55596;53.554;9.916;2022-08-06T06:27:18;13.30;99.90
17797;DHT22;55596;53.554;9.916;2022-08-06T06:29:53;13.20;99.90
17797;DHT22;55596;53.554;9.916;2022-08-06T06:32:34;13.00;99.90
17797;DHT22;55596;53.554;9.916;2022-08-06T06:35:13;12.70;99.90
17797;DHT22;55596;53.554;9.916;2022-08-06T06:37:46;13.10;99.90
17797;DHT22;55596;53.554;9.916;2022-08-06T06:40:29;13.20;99.90
17797;DHT22;55596;53.554;9.916;2022-08-06T06:43:04;13.40;99.90
17797;DHT22;55596;53.554;9.916;2022-08-06T06:45:36;13.60;99.90
17797;DHT22;55596;53.554;9.916;2022-08-06T06:48:12;13.60;99.90
17797;DHT22;55596;53.554;9.916;2022-08-06T06:50:45;13.70;99.90
17797;DHT22;55596;53.554;9.916;2022-08-06T06:53:14;14.00;99.90
17797;DHT22;55596;53.554;9.916;2022-08-06T06:55:45;14.20;99.90
17797;DHT22;55596;53.554;9.916;2022-08-06T06:58:18;14.40;99.90
17797;DHT22;55596;53.554;9.916;2022-08-06T07:00:48;14.60;99.90
17797;DHT22;55596;53.554;9.916;2022-08-06T07:03:18;14.60;99.90
17797;DHT22;55596;53.554;9.916;2022-08-06T07:05:49;14.90;99.90
17797;DHT22;55596;53.554;9.916;2022-08-06T07:08:19;15.40;99.90
17797;DHT22;55596;53.554;9.916;2022-08-06T07:10:48;15.90;99.90
17797;DHT22;55596;53.554;9.916;2022-08-06T07:13:16;16.20;99.90
17797;DHT22;55596;53.554;9.916;2022-08-06T07:15:45;16.30;99.90
17797;DHT22;55596;53.554;9.916;2022-08-06T07:18:14;16.40;99.90
17797;DHT22;55596;53.554;9.916;2022-08-06T07:20:43;16.40;99.90
17797;DHT22;55596;53.554;9.916;2022-08-06T07:23:14;16.40;99.90
17797;DHT22;55596;53.554;9.916;2022-08-06T07:25:47;16.60;99.90
17797;DHT22;55596;53.554;9.916;2022-08-06T07:28:15;17.10;99.90
17797;DHT22;55596;53.554;9.916;2022-08-06T07:30:43;17.70;99.90
17797;DHT22;55596;53.554;9.916;2022-08-06T07:33:12;17.90;99.90
17797;DHT22;55596;53.554;9.916;2022-08-06T07:35:41;17.90;99.90
17797;DHT22;55596;53.554;9.916;2022-08-06T07:38:09;17.50;99.90
17797;DHT22;55596;53.554;9.916;2022-08-06T07:40:42;17.40;99.90
17797;DHT22;55596;53.554;9.916;2022-08-06T07:43:12;17.60;99.90
17797;DHT22;55596;53.554;9.916;2022-08-06T07:45:40;17.10;99.90
17797;DHT22;55596;53.554;9.916;2022-08-06T07:48:10;17.50;99.90
17797;DHT22;55596;53.554;9.916;2022-08-06T07:50:38;17.40;99.90
17797;DHT22;55596;53.554;9.916;2022-08-06T07:53:06;17.90;99.90
17797;DHT22;55596;53.554;9.916;2022-08-06T07:55:34;18.20;99.90
17797;DHT22;55596;53.554;9.916;2022-08-06T07:58:04;18.10;99.90
17797;DHT22;55596;53.554;9.916;2022-08-06T08:00:32;18.40;99.90
17797;DHT22;55596;53.554;9.916;2022-08-06T08:02:59;18.50;99.90
17797;DHT22;55596;53.554;9.916;2022-08-06T08:05:44;18.50;99.90
17797;DHT22;55596;53.554;9.916;2022-08-06T08:08:30;18.40;99.90
17797;DHT22;55596;53.554;9.916;2022-08-06T08:10:58;18.20;99.90
17797;DHT22;55596;53.554;9.916;2022-08-06T08:13:26;17.50;99.90
17797;DHT22;55596;53.554;9.916;2022-08-06T08:15:55;17.30;99.90
17797;DHT22;55596;53.554;9.916;2022-08-06T08:18:28;17.10;99.90
17797;DHT22;55596;53.554;9.916;2022-08-06T08:20:58;17.40;99.90
17797;DHT22;55596;53.554;9.916;2022-08-06T08:23:25;17.20;99.90
17797;DHT22;55596;53.554;9.916;2022-08-06T08:25:53;17.00;99.90
17797;DHT22;55596;53.554;9.916;2022-08-06T08:28:20;17.10;99.90
17797;DHT22;55596;53.554;9.916;2022-08-06T08:30:48;17.10;99.90
17797;DHT22;55596;53.554;9.916;2022-08-06T08:33:15;17.30;99.90
17797;DHT22;55596;53.554;9.916;2022-08-06T08:35:42;17.30;99.90
17797;DHT22;55596;53.554;9.916;2022-08-06T08:38:09;17.50;99.90
17797;DHT22;55596;53.554;9.916;2022-08-06T08:40:36;17.20;99.90
17797;DHT22;55596;53.554;9.916;2022-08-06T08:43:05;17.30;99.90
17797;DHT22;55596;53.554;9.916;2022-08-06T08:45:34;17.60;99.90
17797;DHT22;55596;53.554;9.916;2022-08-06T08:48:03;17.60;99.90
17797;DHT22;55596;53.554;9.916;2022-08-06T08:50:31;18.00;99.90
17797;DHT22;55596;53.554;9.916;2022-08-06T08:53:02;18.10;99.90
17797;DHT22;55596;53.554;9.916;2022-08-06T08:55:29;18.30;99.90
17797;DHT22;55596;53.554;9.916;2022-08-06T08:57:57;18.20;99.90
17797;DHT22;55596;53.554;9.916;2022-08-06T09:00:24;18.10;99.90
17797;DHT22;55596;53.554;9.916;2022-08-06T09:02:51;18.00;99.90
17797;DHT22;55596;53.554;9.916;2022-08-06T09:05:20;17.90;99.90
17797;DHT22;55596;53.554;9.916;2022-08-06T09:07:47;18.00;99.90
17797;DHT22;55596;53.554;9.916;2022-08-06T09:10:15;18.10;99.90
17797;DHT22;55596;53.554;9.916;2022-08-06T09:12:42;18.50;99.90
17797;DHT22;55596;53.554;9.916;2022-08-06T09:15:10;18.40;99.90
17797;DHT22;55596;53.554;9.916;2022-08-06T09:17:37;18.60;99.90
17797;DHT22;55596;53.554;9.916;2022-08-06T09:20:05;18.80;99.90
17797;DHT22;55596;53.554;9.916;2022-08-06T09:22:33;18.90;99.90
17797;DHT22;55596;53.554;9.916;2022-08-06T09:25:00;19.80;99.90
17797;DHT22;55596;53.554;9.916;2022-08-06T09:27:33;20.20;99.90
17797;DHT22;55596;53.554;9.916;2022-08-06T09:30:03;20.50;99.90
17797;DHT22;55596;53.554;9.916;2022-08-06T09:32:40;20.40;99.90
17797;DHT22;55596;53.554;9.916;2022-08-06T09:35:18;20.50;99.90
17797;DHT22;55596;53.554;9.916;2022-08-06T09:37:47;20.50;99.90
17797;DHT22;55596;53.554;9.916;2022-08-06T09:40:15;20.70;99.90
17797;DHT22;55596;53.554;9.916;2022-08-06T09:42:44;20.50;99.90
17797;DHT22;55596;53.554;9.916;2022-08-06T09:45:13;20.30;99.90
17797;DHT22;55596;53.554;9.916;2022-08-06T09:47:44;20.00;99.90
17797;DHT22;55596;53.554;9.916;2022-08-06T09:50:11;19.80;99.90
17797;DHT22;55596;53.554;9.916;2022-08-06T09:52:38;20.20;99.90
17797;DHT22;55596;53.554;9.916;2022-08-06T09:55:07;20.20;99.90
17797;DHT22;55596;53.554;9.916;2022-08-06T09:57:44;20.30;99.90
17797;DHT22;55596;53.554;9.916;2022-08-06T10:00:24;20.20;99.90
17797;DHT22;55596;53.554;9.916;2022-08-06T10:02:55;19.80;99.90
17797;DHT22;55596;53.554;9.916;2022-08-06T10:05:23;19.30;99.90
17797;DHT22;55596;53.554;9.916;2022-08-06T10:08:04;19.40;99.90
17797;DHT22;55596;53.554;9.916;2022-08-06T10:10:44;19.60;99.90
17797;DHT22;55596;53.554;9.916;2022-08-06T10:13:19;19.40;99.90
17797;DHT22;55596;53.554;9.916;2022-08-06T10:15:46;19.50;99.90
17797;DHT22;55596;53.554;9.916;2022-08-06T10:18:35;19.50;99.90
17797;DHT22;55596;53.554;9.916;2022-08-06T10:21:04;19.60;99.90
17797;DHT22;55596;53.554;9.916;2022-08-06T10:23:33;20.10;99.90
17797;DHT22;55596;53.554;9.916;2022-08-06T10:26:03;19.60;99.90
17797;DHT22;55596;53.554;9.916;2022-08-06T10:28:33;20.20;99.90
17797;DHT22;55596;53.554;9.916;2022-08-06T10:31:02;20.50;99.90
17797;DHT22;55596;53.554;9.916;2022-08-06T10:33:32;20.60;99.90
17797;DHT22;55596;53.554;9.916;2022-08-06T10:36:04;21.00;99.90
17797;DHT22;55596;53.554;9.916;2022-08-06T10:38:34;20.60;99.90
17797;DHT22;55596;53.554;9.916;2022-08-06T10:41:06;19.90;99.90
17797;DHT22;55596;53.554;9.916;2022-08-06T10:43:35;19.80;99.90
17797;DHT22;55596;53.554;9.916;2022-08-06T10:46:04;19.70;99.90
17797;DHT22;55596;53.554;9.916;2022-08-06T10:48:33;19.80;99.90
17797;DHT22;55596;53.554;9.916;2022-08-06T10:51:01;19.90;99.90
17797;DHT22;55596;53.554;9.916;2022-08-06T10:53:31;20.20;99.90
17797;DHT22;55596;53.554;9.916;2022-08-06T10:56:01;20.50;99.90
17797;DHT22;55596;53.554;9.916;2022-08-06T10:58:31;20.20;99.90
17797;DHT22;55596;53.554;9.916;2022-08-06T11:00:59;20.00;99.90
17797;DHT22;55596;53.554;9.916;2022-08-06T11:03:40;20.20;99.90
17797;DHT22;55596;53.554;9.916;2022-08-06T11:06:28;20.60;99.90
17797;DHT22;55596;53.554;9.916;2022-08-06T11:09:10;21.10;99.90
17797;DHT22;55596;53.554;9.916;2022-08-06T11:11:55;21.90;99.90
17797;DHT22;55596;53.554;9.916;2022-08-06T11:14:26;21.40;99.20
17797;DHT22;55596;53.554;9.916;2022-08-06T11:16:55;21.00;99.90
17797;DHT22;55596;53.554;9.916;2022-08-06T11:19:38;21.30;99.90
17797;DHT22;55596;53.554;9.916;2022-08-06T11:22:06;21.40;99.90
17797;DHT22;55596;53.554;9.916;2022-08-06T11:24:33;20.50;98.70
17797;DHT22;55596;53.554;9.916;2022-08-06T11:27:48;21.60;99.90
17797;DHT22;55596;53.554;9.916;2022-08-06T11:30:18;21.50;93.40
17797;DHT22;55596;53.554;9.916;2022-08-06T11:32:48;21.90;99.90
17797;DHT22;55596;53.554;9.916;2022-08-06T11:35:44;21.90;99.90
17797;DHT22;55596;53.554;9.916;2022-08-06T11:38:13;21.60;99.90
17797;DHT22;55596;53.554;9.916;2022-08-06T11:40:56;22.10;95.10
17797;DHT22;55596;53.554;9.916;2022-08-06T11:44:03;22.80;95.80
17797;DHT22;55596;53.554;9.916;2022-08-06T11:46:33;23.30;89.00
17797;DHT22;55596;53.554;9.916;2022-08-06T11:49:22;24.60;81.40
17797;DHT22;55596;53.554;9.916;2022-08-06T11:51:52;25.50;73.80
17797;DHT22;55596;53.554;9.916;2022-08-06T11:54:21;25.90;74.10
17797;DHT22;55596;53.554;9.916;2022-08-06T11:57:20;26.70;62.40
17797;DHT22;55596;53.554;9.916;2022-08-06T12:00:04;27.40;51.20
17797;DHT22;55596;53.554;9.916;2022-08-06T12:02:49;26.90;57.40
17797;DHT22;55596;53.554;9.916;2022-08-06T12:05:38;26.90;57.00
17797;DHT22;55596;53.554;9.916;2022-08-06T12:08:20;27.80;48.00
17797;DHT22;55596;53.554;9.916;2022-08-06T12:13:53;27.40;54.30
17797;DHT22;55596;53.554;9.916;2022-08-06T12:16:29;28.00;50.10
17797;DHT22;55596;53.554;9.916;2022-08-06T12:18:57;28.20;52.40
17797;DHT22;55596;53.554;9.916;2022-08-06T12:21:24;29.00;52.50
17797;DHT22;55596;53.554;9.916;2022-08-06T12:23:52;29.70;52.90
17797;DHT22;55596;53.554;9.916;2022-08-06T12:26:19;29.60;51.70
17797;DHT22;55596;53.554;9.916;2022-08-06T12:28:48;29.50;43.00
17797;DHT22;55596;53.554;9.916;2022-08-06T12:31:28;29.80;50.10
17797;DHT22;55596;53.554;9.916;2022-08-06T12:33:57;30.30;37.60
17797;DHT22;55596;53.554;9.916;2022-08-06T12:36:32;30.00;47.10
17797;DHT22;55596;53.554;9.916;2022-08-06T12:39:01;30.00;49.20
17797;DHT22;55596;53.554;9.916;2022-08-06T12:41:39;29.80;48.60
17797;DHT22;55596;53.554;9.916;2022-08-06T12:44:07;30.70;38.60
17797;DHT22;55596;53.554;9.916;2022-08-06T12:46:35;30.60;43.00
17797;DHT22;55596;53.554;9.916;2022-08-06T12:49:03;30.70;34.70
17797;DHT22;55596;53.554;9.916;2022-08-06T12:51:30;30.60;44.40
17797;DHT22;55596;53.554;9.916;2022-08-06T12:54:01;30.60;32.50
17797;DHT22;55596;53.554;9.916;2022-08-06T12:56:30;30.70;42.60
17797;DHT22;55596;53.554;9.916;2022-08-06T12:58:58;31.30;42.10
17797;DHT22;55596;53.554;9.916;2022-08-06T13:01:27;31.60;29.80
17797;DHT22;55596;53.554;9.916;2022-08-06T13:03:57;32.20;28.60
17797;DHT22;55596;53.554;9.916;2022-08-06T13:06:28;31.30;27.50
17797;DHT22;55596;53.554;9.916;2022-08-06T13:08:56;32.40;26.00
17797;DHT22;55596;53.554;9.916;2022-08-06T13:11:31;32.60;41.30
17797;DHT22;55596;53.554;9.916;2022-08-06T13:13:58;32.70;28.50
17797;DHT22;55596;53.554;9.916;2022-08-06T13:16:38;32.50;39.60
17797;DHT22;55596;53.554;9.916;2022-08-06T13:19:07;32.80;39.30
17797;DHT22;55596;53.554;9.916;2022-08-06T13:21:36;33.10;40.00
17797;DHT22;55596;53.554;9.916;2022-08-06T13:24:05;33.00;35.80
17797;DHT22;55596;53.554;9.916;2022-08-06T13:26:34;32.80;39.90
17797;DHT22;55596;53.554;9.916;2022-08-06T13:29:14;33.30;31.70
17797;DHT22;55596;53.554;9.916;2022-08-06T13:31:42;33.80;40.00
17797;DHT22;55596;53.554;9.916;2022-08-06T13:34:10;34.40;37.90
17797;DHT22;55596;53.554;9.916;2022-08-06T13:36:40;34.50;36.60
17797;DHT22;55596;53.554;9.916;2022-08-06T13:39:18;35.20;38.20
17797;DHT22;55596;53.554;9.916;2022-08-06T13:41:45;34.80;38.60
17797;DHT22;55596;53.554;9.916;2022-08-06T13:44:29;35.10;32.10
17797;DHT22;55596;53.554;9.916;2022-08-06T13:46:56;35.60;38.20
17797;DHT22;55596;53.554;9.916;2022-08-06T13:49:24;35.20;29.70
17797;DHT22;55596;53.554;9.916;2022-08-06T13:51:52;35.20;39.20
17797;DHT22;55596;53.554;9.916;2022-08-06T13:54:20;36.10;39.20
17797;DHT22;55596;53.554;9.916;2022-08-06T13:56:48;37.50;35.70
17797;DHT22;55596;53.554;9.916;2022-08-06T13:59:15;37.40;36.80
17797;DHT22;55596;53.554;9.916;2022-08-06T14:01:43;36.80;36.70
17797;DHT22;55596;53.554;9.916;2022-08-06T14:04:11;37.30;31.10
17797;DHT22;55596;53.554;9.916;2022-08-06T14:06:38;37.60;36.40
17797;DHT22;55596;53.554;9.916;2022-08-06T14:09:07;38.40;37.00
17797;DHT22;55596;53.554;9.916;2022-08-06T14:11:33;37.90;34.20
17797;DHT22;55596;53.554;9.916;2022-08-06T14:14:00;38.40;28.00
17797;DHT22;55596;53.554;9.916;2022-08-06T14:16:27;37.10;37.90
17797;DHT22;55596;53.554;9.916;2022-08-06T14:18:54;37.60;35.00
17797;DHT22;55596;53.554;9.916;2022-08-06T14:21:21;37.30;38.00
17797;DHT22;55596;53.554;9.916;2022-08-06T14:23:48;37.40;33.80
17797;DHT22;55596;53.554;9.916;2022-08-06T14:26:16;37.80;37.20
17797;DHT22;55596;53.554;9.916;2022-08-06T14:28:43;36.40;29.30
17797;DHT22;55596;53.554;9.916;2022-08-06T14:31:10;36.00;31.10
17797;DHT22;55596;53.554;9.916;2022-08-06T14:33:37;35.20;25.90
17797;DHT22;55596;53.554;9.916;2022-08-06T14:36:04;34.90;39.30
17797;DHT22;55596;53.554;9.916;2022-08-06T14:38:32;34.10;29.90
17797;DHT22;55596;53.554;9.916;2022-08-06T14:40:59;34.40;41.30
17797;DHT22;55596;53.554;9.916;2022-08-06T14:43:45;34.90;38.50
17797;DHT22;55596;53.554;9.916;2022-08-06T14:46:29;35.00;27.50
17797;DHT22;55596;53.554;9.916;2022-08-06T14:48:58;35.30;37.50
17797;DHT22;55596;53.554;9.916;2022-08-06T14:51:25;36.00;35.90
17797;DHT22;55596;53.554;9.916;2022-08-06T14:53:52;36.60;36.10
17797;DHT22;55596;53.554;9.916;2022-08-06T14:56:19;37.00;30.90
17797;DHT22;55596;53.554;9.916;2022-08-06T14:58:47;37.50;37.40
17797;DHT22;55596;53.554;9.916;2022-08-06T15:01:14;37.00;36.10
17797;DHT22;55596;53.554;9.916;2022-08-06T15:03:41;35.70;32.80
17797;DHT22;55596;53.554;9.916;2022-08-06T15:06:08;35.60;30.40
17797;DHT22;55596;53.554;9.916;2022-08-06T15:08:36;36.30;35.00
17797;DHT22;55596;53.554;9.916;2022-08-06T15:11:04;36.70;34.30
17797;DHT22;55596;53.554;9.916;2022-08-06T15:13:31;36.30;32.90
17797;DHT22;55596;53.554;9.916;2022-08-06T15:15:59;33.40;37.70
17797;DHT22;55596;53.554;9.916;2022-08-06T15:18:26;33.60;38.10
17797;DHT22;55596;53.554;9.916;2022-08-06T15:20:53;33.40;39.80
17797;DHT22;55596;53.554;9.916;2022-08-06T15:23:20;33.80;38.80
17797;DHT22;55596;53.554;9.916;2022-08-06T15:25:47;33.70;38.40
17797;DHT22;55596;53.554;9.916;2022-08-06T15:28:14;34.00;39.00
17797;DHT22;55596;53.554;9.916;2022-08-06T15:30:42;34.60;36.10
17797;DHT22;55596;53.554;9.916;2022-08-06T15:33:11;36.00;38.40
17797;DHT22;55596;53.554;9.916;2022-08-06T15:35:38;36.10;38.10
17797;DHT22;55596;53.554;9.916;2022-08-06T15:38:05;36.90;38.70
17797;DHT22;55596;53.554;9.916;2022-08-06T15:40:32;37.60;37.20
17797;DHT22;55596;53.554;9.916;2022-08-06T15:42:59;37.50;36.30
17797;DHT22;55596;53.554;9.916;2022-08-06T15:45:26;36.60;31.20
17797;DHT22;55596;53.554;9.916;2022-08-06T15:47:53;36.20;35.90
17797;DHT22;55596;53.554;9.916;2022-08-06T15:50:21;36.20;36.10
17797;DHT22;55596;53.554;9.916;2022-08-06T15:52:48;35.40;33.30